Time;durP1;ratioP1;P1;durP2;ratioP2;P2;SDS_P1;SDS_P2;PMS_P1;PMS_P2;Temp;Humidity;BMP_temperature;BMP_pressure;BME280_temperature;BME280_humidity;BME280_pressure;Samples;Min_cycle;Max_cycle;Signal;HPM_P1;HPM_P2
2022/03/07 00:00:09;;;;;;;26.02;13.40;;;;;;;4.45;55.07;102411.84;4772748;29;119397;-81
2022/03/07 00:02:35;;;;;;;22.48;13.07;;;;;;;4.40;55.18;102417.63;4743020;29;123158;-83
2022/03/07 00:05:01;;;;;;;23.20;13.65;;;;;;;4.45;55.29;102424.66;4782999;29;122225;-84
2022/03/07 00:07:26;;;;;;;26.08;14.57;;;;;;;4.43;55.12;102421.53;4787619;29;120550;-83
2022/03/07 00:09:52;;;;;;;20.77;13.68;;;;;;;4.44;55.65;102432.03;4775687;29;120748;-84
2022/03/07 00:12:17;;;;;;;23.15;13.35;;;;;;;4.44;55.60;102436.69;4772946;29;120853;-84
2022/03/07 00:14:43;;;;;;;20.42;13.15;;;;;;;4.37;54.98;102425.72;4788133;29;119789;-83
2022/03/07 00:17:09;;;;;;;20.20;12.60;;;;;;;4.37;55.37;102426.50;4760982;29;120464;-83
2022/03/07 00:19:34;;;;;;;22.25;13.27;;;;;;;4.37;54.87;102426.50;4758985;29;121981;-84
2022/03/07 00:22:03;;;;;;;20.35;13.20;;;;;;;4.40;55.73;102435.84;4757445;29;123698;-82
2022/03/07 00:24:28;;;;;;;22.20;12.50;;;;;;;4.40;54.98;102436.63;4774196;29;120025;-83
2022/03/07 00:26:54;;;;;;;21.38;13.73;;;;;;;4.42;54.74;102445.19;4761945;29;120570;-83
2022/03/07 00:29:20;;;;;;;22.00;13.68;;;;;;;4.35;54.89;102441.59;4759436;29;121755;-83
2022/03/07 00:31:45;;;;;;;21.73;13.48;;;;;;;4.37;55.07;102453.66;4743620;29;121896;-82
2022/03/07 00:34:12;;;;;;;21.85;13.05;;;;;;;4.32;55.12;102441.19;4773526;29;121019;-84
2022/03/07 00:36:38;;;;;;;22.15;14.10;;;;;;;4.33;54.90;102439.25;4787062;29;119823;-82
2022/03/07 00:39:04;;;;;;;21.30;12.98;;;;;;;4.27;55.15;102438.00;4759182;29;121880;-81
2022/03/07 00:41:29;;;;;;;21.65;13.35;;;;;;;4.20;54.59;102433.22;4774197;29;120609;-82
2022/03/07 00:43:57;;;;;;;20.85;12.70;;;;;;;4.12;54.77;102426.09;4773817;29;120206;-83
2022/03/07 00:46:23;;;;;;;19.23;12.30;;;;;;;4.19;54.84;102439.78;4758638;29;120672;-82
2022/03/07 00:48:48;;;;;;;21.58;13.40;;;;;;;4.15;55.38;102430.81;4777228;29;123347;-82
2022/03/07 00:51:14;;;;;;;20.67;13.25;;;;;;;4.17;55.08;102438.59;4774941;29;120142;-85
2022/03/07 00:53:40;;;;;;;20.65;12.95;;;;;;;4.21;55.45;102440.22;4773552;29;120810;-82
2022/03/07 00:56:07;;;;;;;22.88;14.27;;;;;;;4.17;55.49;102435.88;4790039;29;121131;-81
2022/03/07 00:58:33;;;;;;;18.92;13.15;;;;;;;4.16;55.71;102440.53;4773720;29;120060;-83
2022/03/07 01:00:58;;;;;;;25.60;13.98;;;;;;;4.10;55.42;102431.13;4757937;29;123052;-80
2022/03/07 01:03:24;;;;;;;20.30;13.07;;;;;;;4.12;55.36;102439.69;4775589;29;120002;-84
2022/03/07 01:05:49;;;;;;;22.65;14.15;;;;;;;4.15;54.89;102447.09;4776087;29;122366;-83
2022/03/07 01:08:15;;;;;;;22.42;13.02;;;;;;;4.14;54.71;102450.97;4773932;29;121299;-83
2022/03/07 01:10:41;;;;;;;22.75;13.23;;;;;;;4.07;55.04;102442.72;4787024;29;119853;-83
2022/03/07 01:13:07;;;;;;;21.70;13.25;;;;;;;4.05;55.46;102445.00;4771575;29;120515;-82
2022/03/07 01:15:33;;;;;;;21.85;12.50;;;;;;;4.10;55.01;102454.78;4788312;29;119763;-78
2022/03/07 01:17:59;;;;;;;20.88;13.02;;;;;;;4.05;55.03;102446.94;4757762;29;122574;-84
2022/03/07 01:20:28;;;;;;;19.85;13.43;;;;;;;4.04;54.54;102440.72;4749637;29;122516;-82
2022/03/07 01:22:54;;;;;;;24.42;14.20;;;;;;;4.04;55.47;102440.72;4760779;29;119741;-83
2022/03/07 01:25:19;;;;;;;22.00;14.18;;;;;;;3.97;55.13;102424.28;4790504;29;120076;-81
2022/03/07 01:27:45;;;;;;;21.52;13.63;;;;;;;4.00;55.45;102429.00;4774000;29;123073;-83
2022/03/07 01:30:11;;;;;;;22.20;14.45;;;;;;;4.05;55.89;102433.34;4759580;29;120822;-82
2022/03/07 01:32:37;;;;;;;21.95;13.32;;;;;;;4.05;55.34;102428.72;4763191;29;120522;-83
2022/03/07 01:35:06;;;;;;;22.42;12.77;;;;;;;4.05;55.63;102428.72;4761154;29;119632;-84
2022/03/07 01:37:32;;;;;;;24.23;13.35;;;;;;;3.96;55.24;102415.34;4775490;29;122297;-84
2022/03/07 01:39:58;;;;;;;20.80;13.10;;;;;;;4.00;55.69;102427.06;4774426;29;120384;-83
2022/03/07 01:42:25;;;;;;;20.75;13.50;;;;;;;3.98;55.10;102420.44;4761264;29;119912;-82
2022/03/07 01:44:52;;;;;;;19.20;12.82;;;;;;;4.00;55.30;102420.84;4776112;29;120539;-84
2022/03/07 01:47:18;;;;;;;22.40;13.57;;;;;;;3.98;55.23;102431.28;4788217;29;119741;-82
2022/03/07 01:49:44;;;;;;;18.95;13.15;;;;;;;3.89;55.27;102411.75;4742211;29;119919;-83
2022/03/07 01:52:10;;;;;;;24.67;13.65;;;;;;;3.89;55.05;102419.91;4760862;29;121981;-82
2022/03/07 01:54:36;;;;;;;19.33;12.82;;;;;;;3.93;55.13;102423.44;4774888;29;119780;-82
2022/03/07 01:57:02;;;;;;;18.55;13.07;;;;;;;3.87;55.08;102416.75;4759230;29;121814;-82
2022/03/07 01:59:33;;;;;;;22.08;13.10;;;;;;;3.91;55.59;102431.19;4758138;29;122681;-82
2022/03/07 02:02:00;;;;;;;20.20;13.13;;;;;;;3.88;55.40;102410.97;4776434;29;119508;-82
2022/03/07 02:04:26;;;;;;;18.88;12.35;;;;;;;3.84;55.51;102412.06;4774367;29;119918;-83
2022/03/07 02:06:53;;;;;;;21.42;13.38;;;;;;;3.86;55.42;102407.03;4774339;29;119973;-82
2022/03/07 02:09:19;;;;;;;20.25;13.52;;;;;;;3.84;54.91;102409.34;4760201;29;119476;-82
2022/03/07 02:11:45;;;;;;;22.73;14.10;;;;;;;3.79;55.02;102415.06;4775263;29;121599;-83
2022/03/07 02:14:17;;;;;;;21.95;13.90;;;;;;;3.83;55.58;102432.22;4777354;29;119856;-83
2022/03/07 02:16:45;;;;;;;20.30;13.13;;;;;;;3.81;55.21;102437.22;4775639;29;120854;-84
2022/03/07 02:19:15;;;;;;;19.42;12.25;;;;;;;3.81;55.25;102437.22;4774842;29;123431;-87
2022/03/07 02:21:44;;;;;;;20.75;12.88;;;;;;;3.67;54.71;102424.16;4773840;29;120207;-85
2022/03/07 02:24:16;;;;;;;20.55;12.65;;;;;;;3.76;55.39;102440.19;4747825;29;120954;-85
2022/03/07 02:27:01;;;;;;;18.15;12.45;;;;;;;3.74;55.30;102437.06;4775336;29;120216;-85
2022/03/07 02:29:28;;;;;;;17.30;12.05;;;;;;;3.69;55.25;102422.66;4775113;29;120143;-85
2022/03/07 02:31:57;;;;;;;20.75;11.93;;;;;;;3.66;55.89;102420.66;4767088;29;122506;-84
2022/03/07 02:34:25;;;;;;;19.98;12.75;;;;;;;3.68;55.35;102423.00;4773213;29;119828;-86
2022/03/07 02:36:52;;;;;;;19.70;12.27;;;;;;;3.66;55.47;102414.44;4778096;29;119822;-85
2022/03/07 02:39:20;;;;;;;17.45;12.43;;;;;;;3.63;55.98;102415.16;4773706;29;123152;-83
2022/03/07 02:41:47;;;;;;;17.70;12.90;;;;;;;3.70;55.62;102432.34;4742800;29;122138;-82
2022/03/07 02:44:13;;;;;;;20.50;12.63;;;;;;;3.69;55.75;102425.38;4773797;29;120063;-82
2022/03/07 02:46:40;;;;;;;21.52;12.27;;;;;;;3.68;55.57;102426.50;4774717;29;119977;-86
2022/03/07 02:49:09;;;;;;;20.17;12.27;;;;;;;3.64;55.15;102422.16;4760012;29;120351;-84
2022/03/07 02:51:36;;;;;;;17.48;12.13;;;;;;;3.59;55.20;102415.09;4773010;29;121393;-82
2022/03/07 02:54:02;;;;;;;19.98;12.27;;;;;;;3.60;55.22;102424.03;4758413;29;122562;-86
2022/03/07 02:56:27;;;;;;;20.33;12.43;;;;;;;3.63;55.79;102424.09;4774877;29;120517;-82
2022/03/07 02:58:53;;;;;;;18.85;11.77;;;;;;;3.60;55.22;102426.75;4776704;29;122204;-84
2022/03/07 03:01:20;;;;;;;21.58;12.38;;;;;;;3.61;55.67;102423.69;4773647;29;119789;-84
2022/03/07 03:03:46;;;;;;;16.80;11.63;;;;;;;3.56;55.69;102420.47;4757151;29;122071;-84
2022/03/07 03:06:11;;;;;;;17.52;11.40;;;;;;;3.60;55.36;102437.59;4758484;29;122075;-84
2022/03/07 03:08:37;;;;;;;18.13;11.10;;;;;;;3.45;55.36;102414.06;4774102;29;122158;-86
2022/03/07 03:11:03;;;;;;;15.18;10.85;;;;;;;3.51;55.26;102424.25;4758934;29;121489;-83
2022/03/07 03:13:28;;;;;;;17.77;12.13;;;;;;;3.51;55.20;102423.47;4777679;29;120071;-82
2022/03/07 03:15:55;;;;;;;19.08;10.70;;;;;;;3.48;55.15;102421.47;4789763;29;119852;-83
2022/03/07 03:18:22;;;;;;;15.95;11.15;;;;;;;3.55;55.28;102427.03;4775821;29;122122;-81
2022/03/07 03:20:50;;;;;;;18.88;10.93;;;;;;;3.47;55.58;102420.69;4774874;29;122585;-85
2022/03/07 03:23:17;;;;;;;16.77;11.18;;;;;;;3.53;55.68;102432.81;4770593;29;119815;-86
2022/03/07 03:25:42;;;;;;;17.48;11.73;;;;;;;3.43;55.63;102414.41;4772814;29;121296;-84
2022/03/07 03:28:08;;;;;;;17.65;11.32;;;;;;;3.42;55.66;102409.34;4773082;29;120072;-84
2022/03/07 03:30:34;;;;;;;16.77;10.70;;;;;;;3.41;55.66;102408.56;4758283;29;121874;-83
2022/03/07 03:33:00;;;;;;;17.80;10.23;;;;;;;3.50;55.22;102428.09;4771116;29;123246;-86
2022/03/07 03:35:27;;;;;;;17.60;10.55;;;;;;;3.47;55.57;102420.69;4772872;29;119686;-85
2022/03/07 03:37:58;;;;;;;13.77;10.65;;;;;;;3.49;55.83;102420.31;4773992;29;122715;-84
2022/03/07 03:40:23;;;;;;;18.77;11.38;;;;;;;3.50;55.73;102417.25;4772233;29;120365;-81
2022/03/07 03:42:49;;;;;;;17.85;10.48;;;;;;;3.46;55.80;102416.41;4776378;29;119513;-82
2022/03/07 03:45:15;;;;;;;17.75;10.90;;;;;;;3.50;55.56;102422.69;4773562;29;124125;-84
2022/03/07 03:47:43;;;;;;;18.58;11.27;;;;;;;3.51;55.63;102423.47;4759368;29;119908;-84
2022/03/07 03:50:11;;;;;;;17.80;11.35;;;;;;;3.53;55.47;102432.81;4758389;29;122189;-84
2022/03/07 03:52:38;;;;;;;15.82;10.52;;;;;;;3.49;55.55;102434.66;4773220;29;120111;-86
2022/03/07 03:55:05;;;;;;;17.20;11.40;;;;;;;3.45;54.75;102433.81;4794089;29;119806;-84
2022/03/07 03:57:31;;;;;;;18.60;10.85;;;;;;;3.47;55.20;102445.09;4776560;29;121670;-83
2022/03/07 03:59:57;;;;;;;17.60;10.40;;;;;;;3.48;54.97;102443.16;4775396;29;120008;-84
2022/03/07 04:02:23;;;;;;;18.98;11.75;;;;;;;3.46;55.39;102438.09;4783083;29;121372;-84
2022/03/07 04:04:48;;;;;;;21.45;11.80;;;;;;;3.36;55.31;102431.34;4777294;29;119928;-87
2022/03/07 04:07:14;;;;;;;14.45;10.57;;;;;;;3.36;55.25;102419.72;4760029;29;119424;-82
2022/03/07 04:09:40;;;;;;;18.00;11.07;;;;;;;3.42;54.99;102439.19;4791452;29;121422;-83
2022/03/07 04:12:06;;;;;;;18.98;11.38;;;;;;;3.35;55.05;102429.00;4762123;29;122833;-84
2022/03/07 04:14:32;;;;;;;18.42;11.10;;;;;;;3.37;55.42;102432.13;4777939;29;121184;-85
2022/03/07 04:16:58;;;;;;;20.55;11.90;;;;;;;3.38;55.45;102428.28;4777090;29;121704;-84
2022/03/07 04:19:23;;;;;;;17.40;11.30;;;;;;;3.36;55.61;102425.13;4761641;29;123345;-89
2022/03/07 04:21:49;;;;;;;16.95;11.02;;;;;;;3.35;55.56;102426.28;4777309;29;120171;-88
2022/03/07 04:24:15;;;;;;;17.85;11.82;;;;;;;3.37;55.65;102429.41;4766866;29;119397;-86
2022/03/07 04:26:42;;;;;;;16.15;11.02;;;;;;;3.37;55.10;102432.13;4777637;29;119539;-82
2022/03/07 04:29:08;;;;;;;15.52;10.60;;;;;;;3.39;55.75;102432.56;4777124;29;119955;-83
2022/03/07 04:31:39;;;;;;;16.60;11.02;;;;;;;3.32;55.89;102421.56;4775446;29;120834;-85
2022/03/07 04:34:06;;;;;;;19.67;11.23;;;;;;;3.29;55.51;102423.03;4763145;29;120912;-83
2022/03/07 04:36:33;;;;;;;15.43;11.13;;;;;;;3.33;55.11;102429.34;4775858;29;119666;-86
2022/03/07 04:38:58;;;;;;;17.25;11.95;;;;;;;3.32;55.06;102430.50;4759840;29;123026;-84
2022/03/07 04:41:24;;;;;;;16.55;11.00;;;;;;;3.35;55.26;102442.56;4760689;29;120653;-83
2022/03/07 04:43:50;;;;;;;15.95;10.73;;;;;;;3.30;55.28;102440.88;4791931;29;119893;-85
2022/03/07 04:46:16;;;;;;;21.77;12.77;;;;;;;3.30;55.51;102432.75;4779198;29;121591;-88
2022/03/07 04:48:41;;;;;;;19.70;11.15;;;;;;;3.25;54.95;102427.63;4761496;29;121960;-86
2022/03/07 04:51:07;;;;;;;16.35;11.18;;;;;;;3.29;55.07;102446.66;4776064;29;120237;-84
2022/03/07 04:53:32;;;;;;;17.02;10.88;;;;;;;3.28;55.20;102445.88;4775904;29;119545;-84
2022/03/07 04:55:58;;;;;;;18.85;11.23;;;;;;;3.30;55.45;102445.53;4775618;29;122163;-83
2022/03/07 04:58:23;;;;;;;15.32;10.43;;;;;;;3.20;55.03;102441.47;4759835;29;122045;-83
2022/03/07 05:00:49;;;;;;;16.30;10.85;;;;;;;3.22;55.16;102451.97;4745958;29;121240;-84
2022/03/07 05:03:17;;;;;;;15.68;10.50;;;;;;;3.23;54.96;102461.66;4760428;29;122615;-81
2022/03/07 05:05:43;;;;;;;16.60;10.82;;;;;;;3.15;55.07;102447.19;4773392;29;121347;-84
2022/03/07 05:08:08;;;;;;;14.70;10.88;;;;;;;3.16;55.58;102456.88;4782354;29;119449;-83
2022/03/07 05:10:34;;;;;;;16.52;11.50;;;;;;;3.25;55.70;102470.22;4775656;29;121071;-82
2022/03/07 05:12:59;;;;;;;17.40;11.38;;;;;;;3.18;55.76;102457.31;4776012;29;119941;-85
2022/03/07 05:15:25;;;;;;;17.70;10.95;;;;;;;3.20;55.85;102440.69;4775929;29;121527;-86
2022/03/07 05:17:54;;;;;;;14.88;11.02;;;;;;;3.17;55.71;102436.75;4775114;29;120640;-86
2022/03/07 05:20:21;;;;;;;14.88;10.63;;;;;;;3.20;55.24;102443.41;4773391;29;119542;-87
2022/03/07 05:22:47;;;;;;;19.27;11.98;;;;;;;3.21;55.40;102451.19;4759787;29;119929;-86
2022/03/07 05:25:14;;;;;;;16.70;11.60;;;;;;;3.26;55.31;102463.66;4780340;29;121237;-85
2022/03/07 05:27:40;;;;;;;16.13;11.43;;;;;;;3.14;55.76;102442.13;4774527;29;121208;-85
2022/03/07 05:30:08;;;;;;;17.10;11.30;;;;;;;3.25;55.66;102454.75;4777869;29;121869;-83
2022/03/07 05:32:33;;;;;;;18.73;12.10;;;;;;;3.24;55.26;102447.75;4761124;29;120348;-85
2022/03/07 05:34:59;;;;;;;17.08;10.60;;;;;;;3.26;54.96;102448.19;4790593;29;120430;-86
2022/03/07 05:37:28;;;;;;;16.25;11.05;;;;;;;3.19;55.39;102434.47;4776127;29;119685;-87
2022/03/07 05:39:53;;;;;;;15.13;10.98;;;;;;;3.19;55.18;102439.91;4775217;29;119926;-83
2022/03/07 05:42:20;;;;;;;18.05;11.13;;;;;;;3.20;55.24;102446.91;4777138;29;119890;-83
2022/03/07 05:44:46;;;;;;;16.58;11.48;;;;;;;3.14;54.49;102434.78;4775717;29;122523;-85
2022/03/07 05:47:11;;;;;;;19.25;11.95;;;;;;;3.12;55.53;102437.06;4775879;29;120059;-86
2022/03/07 05:49:37;;;;;;;19.50;11.88;;;;;;;3.12;55.36;102434.34;4776322;29;121977;-83
2022/03/07 05:52:07;;;;;;;17.92;10.63;;;;;;;3.16;55.01;102434.41;4764137;29;122643;-88
2022/03/07 05:54:32;;;;;;;18.38;11.52;;;;;;;3.08;55.11;102426.13;4774367;29;120586;-86
2022/03/07 05:56:58;;;;;;;16.25;11.23;;;;;;;3.16;54.94;102435.19;4775880;29;123066;-85
2022/03/07 05:59:28;;;;;;;20.30;11.10;;;;;;;3.18;54.83;102432.13;4774693;29;119486;-87
2022/03/07 06:01:54;;;;;;;18.48;11.88;;;;;;;3.12;54.95;102420.00;4787050;29;120113;-82
2022/03/07 06:04:20;;;;;;;16.00;10.85;;;;;;;3.16;55.09;102429.78;4757642;29;122992;-84
2022/03/07 06:06:45;;;;;;;17.63;10.93;;;;;;;3.17;55.36;102425.13;4758082;29;121116;-82
2022/03/07 06:09:11;;;;;;;16.05;11.70;;;;;;;3.15;55.00;102435.56;4773361;29;119523;-82
2022/03/07 06:11:36;;;;;;;17.73;11.25;;;;;;;3.17;55.59;102444.91;4776185;29;124213;-84
2022/03/07 06:14:02;;;;;;;17.48;11.95;;;;;;;3.18;55.34;102453.81;4759494;29;120170;-82
2022/03/07 06:16:28;;;;;;;20.42;11.60;;;;;;;3.16;55.33;102439.84;4776377;29;119848;-84
2022/03/07 06:18:53;;;;;;;20.23;11.57;;;;;;;3.17;54.96;102449.53;4759878;29;121532;-85
2022/03/07 06:21:19;;;;;;;18.52;12.00;;;;;;;3.15;55.27;102441.75;4775589;29;119948;-81
2022/03/07 06:23:45;;;;;;;18.17;12.00;;;;;;;3.13;55.50;102451.41;4789401;29;123039;-83
2022/03/07 06:26:10;;;;;;;18.52;11.88;;;;;;;3.20;55.61;102451.53;4775681;29;120139;-84
2022/03/07 06:28:36;;;;;;;21.75;13.60;;;;;;;3.26;55.53;102452.81;4757908;29;121564;-86
2022/03/07 06:31:02;;;;;;;18.25;13.65;;;;;;;3.29;56.01;102439.31;4773364;29;119730;-85
2022/03/07 06:33:28;;;;;;;20.15;12.60;;;;;;;3.29;55.58;102435.81;4778871;29;120988;-86
2022/03/07 06:35:53;;;;;;;20.00;12.55;;;;;;;3.28;55.85;102426.91;4759940;29;121220;-86
2022/03/07 06:38:19;;;;;;;21.50;14.13;;;;;;;3.41;56.01;102441.13;4775501;29;120197;-86
2022/03/07 06:40:45;;;;;;;27.88;18.75;;;;;;;3.47;55.97;102445.09;4774162;29;122037;-82
2022/03/07 06:43:11;;;;;;;33.33;21.25;;;;;;;3.50;55.88;102444.38;4772667;29;122683;-86
2022/03/07 06:45:37;;;;;;;28.85;16.65;;;;;;;3.56;56.03;102456.53;4775306;29;120226;-84
2022/03/07 06:48:03;;;;;;;22.00;15.60;;;;;;;3.61;55.98;102450.03;4776801;29;119317;-85
2022/03/07 06:50:29;;;;;;;21.95;12.60;;;;;;;3.66;56.47;102447.00;4744583;29;122588;-85
2022/03/07 06:52:55;;;;;;;19.25;12.07;;;;;;;3.68;56.27;102445.50;4775108;29;119845;-86
2022/03/07 06:55:21;;;;;;;30.65;17.15;;;;;;;3.80;55.89;102452.72;4762570;29;124804;-86
2022/03/07 06:57:47;;;;;;;28.70;17.30;;;;;;;3.76;55.91;102435.56;4760938;29;119983;-86
2022/03/07 07:00:15;;;;;;;24.02;16.65;;;;;;;3.92;56.23;102438.16;4774029;29;122343;-86
2022/03/07 07:02:41;;;;;;;27.50;19.33;;;;;;;3.98;56.53;102436.72;4759047;29;123148;-85
2022/03/07 07:05:08;;;;;;;28.98;19.60;;;;;;;3.98;56.78;102426.63;4774165;29;120102;-85
2022/03/07 07:07:35;;;;;;;25.95;16.70;;;;;;;4.06;56.98;102432.22;4757389;29;121735;-87
2022/03/07 07:10:02;;;;;;;28.23;21.48;;;;;;;4.14;57.07;102434.66;4771477;29;122499;-86
2022/03/07 07:12:28;;;;;;;29.05;20.10;;;;;;;4.14;57.09;102423.03;4760497;29;119539;-86
2022/03/07 07:14:53;;;;;;;27.00;18.33;;;;;;;4.20;57.55;102411.47;4770764;29;119628;-86
2022/03/07 07:17:19;;;;;;;27.30;17.17;;;;;;;4.24;57.25;102414.25;4778199;29;126401;-86
2022/03/07 07:19:44;;;;;;;21.60;16.48;;;;;;;4.36;57.32;102424.94;4775012;29;120033;-84
2022/03/07 07:22:11;;;;;;;23.95;15.13;;;;;;;4.37;57.54;102423.78;4775645;29;122572;-84
2022/03/07 07:24:37;;;;;;;20.88;13.18;;;;;;;4.49;57.23;102417.34;4760259;29;119458;-85
2022/03/07 07:27:03;;;;;;;24.80;14.00;;;;;;;4.55;58.17;102424.06;4763277;29;119337;-85
2022/03/07 07:29:29;;;;;;;20.65;14.18;;;;;;;4.55;57.84;102422.13;4777453;29;120153;-84
2022/03/07 07:31:58;;;;;;;21.60;13.88;;;;;;;4.68;58.31;102430.03;4781243;29;119610;-85
2022/03/07 07:34:26;;;;;;;18.10;12.48;;;;;;;4.67;58.44;102412.94;4779547;29;119684;-82
2022/03/07 07:36:52;;;;;;;18.48;12.52;;;;;;;4.86;58.89;102422.94;4773414;29;120349;-84
2022/03/07 07:39:17;;;;;;;16.30;12.23;;;;;;;4.85;58.72;102413.19;4782336;29;119274;-85
2022/03/07 07:41:43;;;;;;;15.02;11.70;;;;;;;5.00;58.86;102420.41;4777275;29;120374;-85
2022/03/07 07:44:09;;;;;;;15.90;12.30;;;;;;;5.11;59.13;102424.03;4764170;29;120038;-84
2022/03/07 07:46:34;;;;;;;15.20;12.43;;;;;;;5.18;59.51;102426.81;4778032;29;119580;-83
2022/03/07 07:49:00;;;;;;;16.80;11.68;;;;;;;5.30;59.46;102433.19;4777583;29;123220;-83
2022/03/07 07:51:25;;;;;;;16.90;11.55;;;;;;;5.38;59.48;102438.34;4762779;29;121386;-84
2022/03/07 07:53:51;;;;;;;17.33;11.90;;;;;;;5.40;59.93;102427.06;4777482;29;121660;-82
2022/03/07 07:56:17;;;;;;;18.83;12.95;;;;;;;5.54;59.95;102438.13;4763784;29;122600;-85
2022/03/07 07:58:42;;;;;;;18.58;12.00;;;;;;;5.55;60.05;102421.41;4763087;29;120091;-83
2022/03/07 08:01:08;;;;;;;13.38;10.43;;;;;;;5.82;59.96;102445.81;4749005;29;122092;-85
2022/03/07 08:03:34;;;;;;;13.10;6.85;;;;;;;5.95;59.94;102447.13;4790218;29;119843;-85
2022/03/07 08:05:59;;;;;;;10.02;6.32;;;;;;;6.11;59.88;102446.88;4777862;29;122815;-85
2022/03/07 08:08:28;;;;;;;7.68;4.82;;;;;;;6.26;59.39;102443.13;4776891;29;122720;-84
2022/03/07 08:10:54;;;;;;;9.18;4.75;;;;;;;6.40;58.94;102445.19;4777878;29;120929;-84
2022/03/07 08:13:20;;;;;;;5.97;3.70;;;;;;;6.54;58.70;102439.03;4779873;29;120370;-83
2022/03/07 08:15:46;;;;;;;8.13;4.20;;;;;;;6.67;57.90;102435.63;4776204;29;123505;-82
2022/03/07 08:18:12;;;;;;;5.90;3.65;;;;;;;6.79;57.67;102445.41;4776377;29;119459;-83
2022/03/07 08:20:38;;;;;;;7.50;3.90;;;;;;;6.97;57.31;102462.66;4765936;29;122866;-83
2022/03/07 08:23:04;;;;;;;5.20;3.65;;;;;;;7.16;57.33;102452.63;4760275;29;119949;-81
2022/03/07 08:25:31;;;;;;;8.43;3.55;;;;;;;7.27;57.44;102446.03;4771309;29;121662;-82
2022/03/07 08:27:56;;;;;;;6.72;4.03;;;;;;;7.46;56.95;102460.53;4773991;29;124011;-82
2022/03/07 08:30:25;;;;;;;5.13;3.15;;;;;;;7.54;56.98;102462.91;4761178;29;120463;-81
2022/03/07 08:32:51;;;;;;;5.53;2.92;;;;;;;7.72;55.83;102467.63;4774367;29;119622;-82
2022/03/07 08:35:17;;;;;;;6.03;2.78;;;;;;;7.86;55.91;102457.53;4777844;29;123365;-81
2022/03/07 08:37:45;;;;;;;5.40;2.67;;;;;;;7.97;55.43;102463.78;4772040;29;120374;-82
2022/03/07 08:40:14;;;;;;;4.65;2.75;;;;;;;8.14;54.75;102464.19;4770174;29;119958;-82
2022/03/07 08:42:40;;;;;;;5.95;3.05;;;;;;;8.23;55.45;102459.09;4762625;29;121680;-81
2022/03/07 08:45:07;;;;;;;5.38;2.90;;;;;;;8.39;54.50;102459.53;4777143;29;121351;-82
2022/03/07 08:47:34;;;;;;;6.93;3.22;;;;;;;8.50;53.93;102468.47;4743062;29;123094;-81
2022/03/07 08:50:00;;;;;;;12.40;3.30;;;;;;;8.63;53.59;102462.63;4761083;29;119460;-82
2022/03/07 08:52:25;;;;;;;5.65;3.08;;;;;;;8.67;53.57;102455.19;4771876;29;119905;-82
2022/03/07 08:54:51;;;;;;;5.20;2.70;;;;;;;8.85;53.96;102461.41;4778819;29;121080;-81
2022/03/07 08:57:17;;;;;;;4.75;2.50;;;;;;;8.92;53.32;102444.97;4761304;29;120037;-81
2022/03/07 08:59:43;;;;;;;5.65;2.80;;;;;;;9.07;53.16;102457.44;4774961;29;120240;-81
2022/03/07 09:02:09;;;;;;;4.45;2.22;;;;;;;9.18;52.19;102463.63;4761793;29;122850;-81
2022/03/07 09:04:40;;;;;;;5.45;2.22;;;;;;;9.26;52.13;102466.38;4780791;29;119720;-81
2022/03/07 09:07:08;;;;;;;5.88;2.40;;;;;;;9.30;51.22;102458.91;4759636;29;122766;-81
2022/03/07 09:09:37;;;;;;;5.13;2.10;;;;;;;9.41;51.45;102470.59;4773534;29;119775;-80
2022/03/07 09:12:04;;;;;;;4.57;2.20;;;;;;;9.49;50.93;102466.66;4775570;29;122094;-80
2022/03/07 09:14:30;;;;;;;5.47;2.08;;;;;;;9.50;50.37;102462.72;4759558;29;123621;-80
2022/03/07 09:16:55;;;;;;;4.88;2.25;;;;;;;9.51;50.56;102456.06;4777094;29;121318;-81
2022/03/07 09:19:21;;;;;;;3.83;1.95;;;;;;;9.66;51.24;102471.22;4768364;29;122334;-81
2022/03/07 09:21:47;;;;;;;4.50;2.00;;;;;;;9.77;50.85;102482.16;4774450;29;122056;-81
2022/03/07 09:24:13;;;;;;;6.68;2.10;;;;;;;9.83;50.43;102486.81;4777814;29;120684;-81
2022/03/07 09:26:38;;;;;;;3.08;1.90;;;;;;;9.85;51.28;102478.94;4794742;29;121755;-81
2022/03/07 09:29:04;;;;;;;3.75;1.80;;;;;;;9.97;51.54;102487.91;4773832;29;119596;-81
2022/03/07 09:31:30;;;;;;;5.47;1.70;;;;;;;10.02;49.72;102487.47;4760202;29;121945;-81
2022/03/07 09:33:56;;;;;;;4.78;1.60;;;;;;;10.04;50.35;102490.59;4761806;29;122908;-81
2022/03/07 09:36:22;;;;;;;2.50;1.77;;;;;;;10.11;49.60;102496.00;4757399;29;121718;-81
2022/03/07 09:38:50;;;;;;;2.67;1.77;;;;;;;10.15;48.74;102494.03;4776785;29;120825;-81
2022/03/07 09:41:17;;;;;;;3.63;1.77;;;;;;;10.21;47.31;102492.47;4773558;29;121494;-80
2022/03/07 09:43:44;;;;;;;3.08;2.00;;;;;;;10.25;47.98;102495.94;4770473;29;120170;-79
2022/03/07 09:46:10;;;;;;;5.75;1.98;;;;;;;10.31;47.42;102494.31;4747705;29;123092;-80
2022/03/07 09:48:35;;;;;;;3.72;1.80;;;;;;;10.31;47.71;102483.34;4752298;29;123094;-80
2022/03/07 09:51:01;;;;;;;3.90;2.08;;;;;;;10.45;47.53;102494.22;4769200;29;119655;-79
2022/03/07 09:53:27;;;;;;;5.35;2.40;;;;;;;10.47;47.19;102485.59;4770433;29;122561;-80
2022/03/07 09:55:52;;;;;;;4.38;2.13;;;;;;;10.52;46.90;102476.91;4753814;29;121157;-80
2022/03/07 09:58:18;;;;;;;4.93;2.17;;;;;;;10.61;47.09;102481.91;4774311;29;119550;-79
2022/03/07 10:00:44;;;;;;;3.22;2.08;;;;;;;10.70;46.37;102494.00;4752086;29;123142;-79
2022/03/07 10:03:13;;;;;;;3.08;1.90;;;;;;;10.72;46.10;102483.38;4770438;29;120163;-79
2022/03/07 10:05:44;;;;;;;3.63;2.08;;;;;;;10.71;46.94;102481.81;4772336;29;121848;-79
2022/03/07 10:08:22;;;;;;;5.28;2.50;;;;;;;10.75;45.13;102484.53;4784740;29;121310;-79
2022/03/07 10:10:50;;;;;;;4.10;2.38;;;;;;;10.71;46.01;102478.31;4774545;29;119904;-80
2022/03/07 10:13:16;;;;;;;7.70;3.30;;;;;;;10.77;46.86;102495.88;4757991;29;123185;-80
2022/03/07 10:15:42;;;;;;;5.57;3.28;;;;;;;10.73;47.99;102478.66;4774592;29;119716;-80
2022/03/07 10:18:17;;;;;;;5.90;3.60;;;;;;;10.78;46.81;102483.72;4759599;29;119448;-79
2022/03/07 10:20:58;;;;;;;6.20;2.90;;;;;;;10.80;46.47;102486.03;4757384;29;124333;-79
2022/03/07 10:23:25;;;;;;;5.00;3.05;;;;;;;10.89;47.39;102494.59;4775133;29;120636;-79
2022/03/07 10:25:51;;;;;;;5.82;3.00;;;;;;;10.92;47.05;102493.78;4773042;29;119831;-79
2022/03/07 10:28:18;;;;;;;7.55;3.13;;;;;;;10.97;46.43;102494.09;4759356;29;122613;-79
2022/03/07 10:30:44;;;;;;;4.03;2.40;;;;;;;10.97;47.13;102487.84;4749054;29;119774;-80
2022/03/07 10:33:13;;;;;;;4.95;2.50;;;;;;;11.01;45.78;102499.56;4790352;29;122924;-79
2022/03/07 10:35:49;;;;;;;5.78;2.42;;;;;;;11.04;46.86;102491.28;4788902;29;119608;-75
2022/03/07 10:38:18;;;;;;;4.05;2.53;;;;;;;11.11;47.68;102489.63;4774404;29;121482;-79
2022/03/07 10:40:48;;;;;;;5.63;2.63;;;;;;;11.17;46.37;102488.78;4770360;29;119975;-79
2022/03/07 10:43:14;;;;;;;4.88;2.60;;;;;;;11.19;45.21;102491.91;4788137;29;120760;-78
2022/03/07 10:45:54;;;;;;;4.10;2.50;;;;;;;11.21;45.73;102494.22;4769863;29;121315;-78
2022/03/07 10:48:21;;;;;;;8.02;2.40;;;;;;;11.20;45.09;102495.41;4770598;29;120651;-81
2022/03/07 10:50:52;;;;;;;6.43;2.60;;;;;;;11.20;45.34;102496.19;4771663;29;119720;-79
2022/03/07 10:53:19;;;;;;;4.43;2.60;;;;;;;11.21;46.01;102502.47;4777347;29;120324;-79
2022/03/07 10:55:54;;;;;;;6.05;2.70;;;;;;;11.23;45.35;102500.88;4771797;29;122188;-79
2022/03/07 10:58:21;;;;;;;2.70;2.00;;;;;;;11.23;45.14;102497.34;4772288;29;122504;-78
2022/03/07 11:00:50;;;;;;;3.33;2.38;;;;;;;11.25;46.48;102495.75;4773535;29;119901;-78
2022/03/07 11:03:22;;;;;;;4.47;2.50;;;;;;;11.22;45.27;102485.56;4775643;29;120290;-78
2022/03/07 11:05:48;;;;;;;3.83;2.58;;;;;;;11.20;45.42;102487.19;4774694;29;121852;-78
2022/03/07 11:08:15;;;;;;;5.45;2.90;;;;;;;11.28;46.13;102489.41;4773849;29;121457;-78